createdAt,value
2023-04-04T00:00:50.976Z,1.70
2023-04-04T00:06:07.797Z,1.63
2023-04-04T00:11:11.437Z,1.54
2023-04-04T00:16:15.097Z,1.49
2023-04-04T00:21:28.718Z,1.44
2023-04-04T00:27:01.342Z,1.35
2023-04-04T00:32:14.910Z,1.27
2023-04-04T00:37:18.341Z,1.22
2023-04-04T00:42:22.448Z,1.16
2023-04-04T00:47:37.906Z,1.18
2023-04-04T00:52:41.426Z,1.17
2023-04-04T00:57:55.343Z,1.12
2023-04-04T01:02:59.481Z,1.08
2023-04-04T01:08:02.839Z,1.00
2023-04-04T01:13:06.863Z,0.91
2023-04-04T01:18:14.590Z,0.79
2023-04-04T01:23:18.671Z,0.68
2023-04-04T01:28:26.218Z,0.61
2023-04-04T01:33:37.750Z,0.57
2023-04-04T01:39:15.610Z,0.55
2023-04-04T01:44:19.417Z,0.54
2023-04-04T01:49:25.903Z,0.53
2023-04-04T01:54:36.059Z,0.50
2023-04-04T01:59:39.649Z,0.46
2023-04-04T02:04:46.514Z,0.43
2023-04-04T02:09:53.559Z,0.38
2023-04-04T02:15:00.524Z,0.32
2023-04-04T02:20:07.779Z,0.28
2023-04-04T02:25:11.150Z,0.26
2023-04-04T02:30:19.982Z,0.27
2023-04-04T02:35:26.194Z,0.31
2023-04-04T02:40:29.823Z,0.32
2023-04-04T02:45:36.376Z,0.29
2023-04-04T02:50:48.155Z,0.25
2023-04-04T02:55:51.843Z,0.21
2023-04-04T03:00:55.997Z,0.16
2023-04-04T03:06:03.357Z,0.13
2023-04-04T03:11:06.926Z,0.07
2023-04-04T03:16:16.551Z,0.01
2023-04-04T03:21:23.952Z,-0.02
2023-04-04T03:26:32.577Z,0.01
2023-04-04T03:31:39.372Z,0.02
2023-04-04T03:37:00.708Z,0.06
2023-04-04T03:42:04.354Z,0.03
2023-04-04T03:47:12.408Z,-0.03
2023-04-04T03:52:15.940Z,-0.08
2023-04-04T03:57:19.862Z,-0.14
2023-04-04T04:02:23.373Z,-0.21
2023-04-04T04:07:31.200Z,-0.24
2023-04-04T04:12:34.748Z,-0.27
2023-04-04T04:17:42.254Z,-0.31
2023-04-04T04:22:47.624Z,-0.28
2023-04-04T04:27:55.576Z,-0.23
2023-04-04T04:33:02.255Z,-0.18
2023-04-04T04:38:11.018Z,-0.17
2023-04-04T04:43:15.269Z,-0.15
2023-04-04T04:48:18.992Z,-0.11
2023-04-04T04:53:42.653Z,-0.02
2023-04-04T04:59:19.251Z,0.19
2023-04-04T05:04:23.550Z,0.61
2023-04-04T05:09:52.710Z,0.96
2023-04-04T05:14:58.405Z,1.13
2023-04-04T05:20:02.629Z,1.30
2023-04-04T05:25:06.814Z,1.65
2023-04-04T05:30:11.738Z,2.27
2023-04-04T05:35:26.147Z,3.04
2023-04-04T05:40:32.835Z,3.74
2023-04-04T05:45:49.767Z,4.46
2023-04-04T05:51:06.567Z,5.41
2023-04-04T05:56:20.093Z,6.24
2023-04-04T06:01:26.898Z,6.92
2023-04-04T06:06:35.826Z,7.38
2023-04-04T06:11:40.089Z,7.93
2023-04-04T06:17:07.805Z,8.43
2023-04-04T06:22:11.743Z,9.56
2023-04-04T06:27:22.500Z,9.75
2023-04-04T06:32:40.057Z,8.85
2023-04-04T06:38:17.067Z,8.41
2023-04-04T06:43:43.924Z,7.75
2023-04-04T06:48:47.765Z,7.79
2023-04-04T06:53:53.678Z,7.73
2023-04-04T06:58:59.570Z,7.63
2023-04-04T07:04:03.747Z,7.45
2023-04-04T07:09:12.796Z,7.44
2023-04-04T07:15:01.506Z,7.17
2023-04-04T07:20:19.424Z,6.94
2023-04-04T07:25:23.176Z,6.66
2023-04-04T07:30:46.868Z,6.11
2023-04-04T07:35:50.449Z,6.00
2023-04-04T07:40:59.625Z,6.18
2023-04-04T07:46:24.626Z,5.98
2023-04-04T07:51:54.823Z,5.43
2023-04-04T07:56:58.296Z,5.20
2023-04-04T08:02:07.435Z,5.18
2023-04-04T08:07:13.932Z,5.22
2023-04-04T08:12:57.862Z,5.20
2023-04-04T08:18:21.533Z,5.43
2023-04-04T08:23:55.940Z,5.45
2023-04-04T08:30:05.727Z,5.42
2023-04-04T08:35:43.767Z,5.55
2023-04-04T08:40:48.106Z,5.60
2023-04-04T08:46:10.083Z,5.62
2023-04-04T08:51:31.980Z,5.66
2023-04-04T08:56:56.357Z,5.44
2023-04-04T09:02:12.163Z,5.47
2023-04-04T09:07:56.675Z,5.28
2023-04-04T09:13:15.502Z,5.27
2023-04-04T09:18:20.209Z,5.36
2023-04-04T09:23:26.475Z,5.33
2023-04-04T09:28:29.881Z,5.43
2023-04-04T09:33:34.424Z,5.42
2023-04-04T09:38:41.064Z,5.43
2023-04-04T09:43:49.455Z,5.17
2023-04-04T09:49:00.387Z,4.96
2023-04-04T09:54:18.792Z,4.80
2023-04-04T09:59:49.926Z,4.76
2023-04-04T10:05:05.648Z,4.77
2023-04-04T10:10:33.207Z,4.69
2023-04-04T10:15:39.229Z,4.68
2023-04-04T10:20:43.663Z,4.75
2023-04-04T10:25:50.608Z,4.86
2023-04-04T10:31:26.086Z,4.87
2023-04-04T10:36:36.643Z,4.82
2023-04-04T10:41:46.185Z,4.84
2023-04-04T10:46:53.846Z,4.88
2023-04-04T10:52:24.676Z,4.88
2023-04-04T10:58:04.784Z,4.99
2023-04-04T11:03:28.521Z,5.04
2023-04-04T11:08:43.115Z,5.09
2023-04-04T11:14:08.457Z,5.13
2023-04-04T11:19:20.792Z,5.20
2023-04-04T11:24:28.322Z,5.16
2023-04-04T11:30:13.626Z,5.04
2023-04-04T11:35:27.207Z,5.06
2023-04-04T11:41:02.492Z,5.18
2023-04-04T11:47:17.801Z,5.14
2023-04-04T11:53:24.208Z,4.84
2023-04-04T11:59:28.180Z,4.71
2023-04-04T12:04:32.062Z,4.60
2023-04-04T12:09:48.431Z,4.54
2023-04-04T12:15:06.226Z,4.60
2023-04-04T12:20:35.001Z,4.80
2023-04-04T12:25:44.403Z,4.90
2023-04-04T12:30:48.164Z,4.86
2023-04-04T12:35:55.455Z,4.78
2023-04-04T12:41:09.513Z,4.67
2023-04-04T12:46:18.311Z,4.60
2023-04-04T12:51:51.589Z,4.57
2023-04-04T12:57:22.641Z,4.57
2023-04-04T13:03:16.641Z,4.62
2023-04-04T13:08:20.841Z,4.67
2023-04-04T13:18:59.909Z,4.81
2023-04-04T13:24:26.419Z,4.80
2023-04-04T13:29:53.200Z,4.70
2023-04-04T13:35:02.858Z,4.71
2023-04-04T13:40:58.288Z,4.66
2023-04-04T13:46:22.041Z,4.73
2023-04-04T13:51:31.225Z,4.77
2023-04-04T13:57:06.948Z,4.73
2023-04-04T14:02:30.739Z,4.68
2023-04-04T14:08:01.326Z,4.65
2023-04-04T14:13:04.912Z,4.71
2023-04-04T14:18:08.291Z,4.68
2023-04-04T14:23:14.627Z,4.66
2023-04-04T14:28:18.317Z,4.67
2023-04-04T14:33:22.412Z,4.62
2023-04-04T14:38:26.038Z,4.56
2023-04-04T14:43:43.476Z,4.64
2023-04-04T14:49:00.733Z,4.74
2023-04-04T14:54:04.594Z,4.76
2023-04-04T14:59:20.364Z,4.68
2023-04-04T15:04:48.692Z,4.70
2023-04-04T15:09:52.333Z,4.71
2023-04-04T15:14:56.123Z,4.68
2023-04-04T15:20:29.405Z,4.67
2023-04-04T15:25:38.964Z,4.66
2023-04-04T15:31:02.654Z,4.64
2023-04-04T15:36:16.329Z,4.60
2023-04-04T15:41:30.108Z,4.57
2023-04-04T15:46:46.939Z,4.54
2023-04-04T15:52:30.950Z,4.53
2023-04-04T15:57:36.728Z,4.50
2023-04-04T16:03:24.012Z,4.42
2023-04-04T16:08:43.180Z,4.35
2023-04-04T16:14:30.241Z,4.31
2023-04-04T16:20:15.275Z,4.21
2023-04-04T16:25:43.499Z,4.15
2023-04-04T16:30:47.016Z,4.07
2023-04-04T16:36:00.920Z,3.97
2023-04-04T16:41:14.368Z,3.89
2023-04-04T16:46:51.085Z,3.86
2023-04-04T16:52:10.872Z,3.84
2023-04-04T16:57:34.532Z,3.84
2023-04-04T17:02:45.820Z,3.85
2023-04-04T17:08:19.394Z,3.81
2023-04-04T17:13:46.135Z,3.77
2023-04-04T17:18:49.919Z,3.73
2023-04-04T17:23:53.560Z,3.68
2023-04-04T17:29:20.833Z,3.66
2023-04-04T17:34:27.926Z,3.63
2023-04-04T17:39:51.766Z,3.59
2023-04-04T17:45:20.374Z,3.60
2023-04-04T17:51:06.187Z,3.60
2023-04-04T17:56:31.562Z,3.60
2023-04-04T18:02:04.790Z,3.58
2023-04-04T18:07:28.988Z,3.52
2023-04-04T18:12:44.554Z,3.50
2023-04-04T18:17:47.880Z,3.48
2023-04-04T18:22:52.785Z,3.47
2023-04-04T18:27:56.234Z,3.47
2023-04-04T18:32:59.748Z,3.46
2023-04-04T18:38:03.222Z,3.46
2023-04-04T18:43:07.044Z,3.46
2023-04-04T18:48:12.770Z,3.46
2023-04-04T18:53:16.359Z,3.45
2023-04-04T18:58:20.195Z,3.42
2023-04-04T19:03:25.155Z,3.40
2023-04-04T19:08:32.079Z,3.39
2023-04-04T19:13:40.396Z,3.36
2023-04-04T19:18:44.417Z,3.35
2023-04-04T19:23:47.974Z,3.27
2023-04-04T19:28:54.608Z,3.18
2023-04-04T19:33:59.139Z,3.11
2023-04-04T19:39:31.132Z,3.02
2023-04-04T19:44:41.476Z,2.91
2023-04-04T19:49:52.873Z,2.69
2023-04-04T19:55:53.852Z,2.41
2023-04-04T20:01:00.453Z,2.18
2023-04-04T20:06:23.648Z,2.02
2023-04-04T20:11:33.034Z,1.90
2023-04-04T20:16:40.542Z,1.79
2023-04-04T20:22:46.918Z,1.68
2023-04-04T20:28:22.923Z,1.59
2023-04-04T20:33:36.823Z,1.54
2023-04-04T20:38:50.751Z,1.50
2023-04-04T20:44:19.563Z,1.40
2023-04-04T20:49:25.980Z,1.37
2023-04-04T20:54:49.560Z,1.29
2023-04-04T20:59:53.239Z,1.22
2023-04-04T21:04:56.754Z,1.23
2023-04-04T21:10:01.494Z,1.25
2023-04-04T21:15:10.833Z,1.32
2023-04-04T21:20:53.803Z,1.32
2023-04-04T21:25:59.011Z,1.41
2023-04-04T21:31:17.375Z,1.34
2023-04-04T21:36:32.794Z,1.29
2023-04-04T21:41:36.241Z,1.19
2023-04-04T21:46:41.741Z,1.17
2023-04-04T21:51:45.587Z,1.11
2023-04-04T21:56:48.801Z,1.03
2023-04-04T22:01:51.991Z,0.93
2023-04-04T22:06:55.544Z,0.83
2023-04-04T22:11:59.237Z,0.71
2023-04-04T22:17:05.574Z,0.59
2023-04-04T22:22:09.628Z,0.57
2023-04-04T22:27:22.184Z,0.50
2023-04-04T22:32:26.388Z,0.57
2023-04-04T22:37:30.770Z,0.52
2023-04-04T22:42:36.591Z,0.47
2023-04-04T22:48:20.548Z,0.36
2023-04-04T22:53:44.588Z,0.32
2023-04-04T22:58:51.142Z,0.24
2023-04-04T23:03:54.514Z,0.16
2023-04-04T23:09:08.434Z,0.07
2023-04-04T23:14:22.939Z,-0.03
2023-04-04T23:19:39.959Z,-0.08
2023-04-04T23:24:44.803Z,-0.16
2023-04-04T23:29:50.897Z,-0.22
2023-04-04T23:35:04.545Z,-0.22
2023-04-04T23:40:09.074Z,-0.17
2023-04-04T23:45:13.287Z,-0.20
2023-04-04T23:50:17.343Z,-0.22
2023-04-04T23:55:21.014Z,-0.26
